Time;durP1;ratioP1;P1;durP2;ratioP2;P2;SDS_P1;SDS_P2;PMS_P1;PMS_P2;Temp;Humidity;BMP_temperature;BMP_pressure;BME280_temperature;BME280_humidity;BME280_pressure;Samples;Min_cycle;Max_cycle;Signal;HPM_P1;HPM_P2
2021/10/13 00:02:11;;;;;;;36.35;22.60;;;;;;;9.29;100.00;98477.15;1594387;88;21443;-71
2021/10/13 00:04:38;;;;;;;36.38;22.45;;;;;;;9.27;100.00;98476.30;1594194;88;20916;-71
2021/10/13 00:07:06;;;;;;;35.05;22.65;;;;;;;9.26;100.00;98478.05;1594381;90;21034;-70
2021/10/13 00:09:34;;;;;;;31.37;21.40;;;;;;;9.24;100.00;98475.89;1594534;88;20993;-71
2021/10/13 00:12:03;;;;;;;33.83;20.00;;;;;;;9.22;100.00;98469.77;1594191;89;20928;-70
2021/10/13 00:14:34;;;;;;;31.95;20.52;;;;;;;9.22;100.00;98472.84;1594380;90;21436;-70
2021/10/13 00:17:03;;;;;;;39.83;20.90;;;;;;;9.23;100.00;98479.85;1594128;89;20905;-71
2021/10/13 00:19:31;;;;;;;32.42;20.27;;;;;;;9.25;100.00;98478.08;1594273;88;20905;-70
2021/10/13 00:22:00;;;;;;;32.73;20.23;;;;;;;9.26;100.00;98471.92;1594591;88;20916;-70
2021/10/13 00:24:32;;;;;;;30.05;19.50;;;;;;;9.26;100.00;98470.61;1595192;88;21455;-71
2021/10/13 00:27:00;;;;;;;32.55;20.57;;;;;;;9.24;100.00;98471.94;1595688;88;21512;-71
2021/10/13 00:29:27;;;;;;;34.78;21.55;;;;;;;9.23;100.00;98470.20;1600063;87;20985;-71
2021/10/13 00:31:58;;;;;;;36.45;21.27;;;;;;;9.21;100.00;98460.13;1597452;89;21049;-72
2021/10/13 00:34:26;;;;;;;41.25;22.20;;;;;;;9.20;100.00;98462.78;1595061;89;20972;-72
2021/10/13 00:36:55;;;;;;;37.13;20.72;;;;;;;9.19;100.00;98459.73;1594240;89;21531;-71
2021/10/13 00:39:25;;;;;;;33.58;20.75;;;;;;;9.14;100.00;98460.65;1594342;89;21360;-71
2021/10/13 00:41:53;;;;;;;28.95;19.92;;;;;;;9.14;100.00;98470.30;1594051;89;20977;-72
2021/10/13 00:44:20;;;;;;;31.77;20.55;;;;;;;9.11;100.00;98465.08;1594162;89;21075;-70
2021/10/13 00:46:48;;;;;;;35.10;20.65;;;;;;;9.10;100.00;98469.47;1594170;89;21032;-69
2021/10/13 00:49:16;;;;;;;28.80;18.75;;;;;;;9.11;100.00;98467.27;1594248;88;20992;-69
2021/10/13 00:51:48;;;;;;;30.20;19.32;;;;;;;9.15;100.00;98473.36;1594197;90;21147;-71
2021/10/13 00:54:16;;;;;;;29.90;20.12;;;;;;;9.14;100.00;98471.17;1594111;88;21437;-72
2021/10/13 00:56:44;;;;;;;29.55;19.57;;;;;;;9.13;100.00;98471.19;1594668;89;21021;-71
2021/10/13 00:59:15;;;;;;;29.55;18.67;;;;;;;9.11;100.00;98467.27;1594035;88;21463;-71
2021/10/13 01:01:58;;;;;;;28.57;19.35;;;;;;;9.12;100.00;98473.40;1593982;89;21037;-71
2021/10/13 01:05:06;;;;;;;32.60;19.70;;;;;;;9.12;100.00;98469.45;1594657;89;21943;-71
2021/10/13 01:07:47;;;;;;;29.07;18.62;;;;;;;9.11;100.00;98458.50;1594298;88;21021;-70
2021/10/13 01:10:32;;;;;;;25.80;18.80;;;;;;;9.11;100.00;98460.69;1594428;88;20979;-71
2021/10/13 01:13:32;;;;;;;25.48;17.37;;;;;;;9.10;100.00;98453.68;1571179;89;20981;-71
2021/10/13 01:16:06;;;;;;;25.52;17.05;;;;;;;9.09;100.00;98448.44;1575983;90;21015;-71
2021/10/13 01:18:39;;;;;;;24.02;17.15;;;;;;;9.05;100.00;98451.99;1594680;88;21487;-71
2021/10/13 01:21:51;;;;;;;25.57;16.25;;;;;;;9.01;100.00;98456.86;1574972;89;21021;-70
2021/10/13 01:25:02;;;;;;;21.13;15.93;;;;;;;9.00;100.00;98451.17;1592148;89;20969;-70
2021/10/13 01:28:01;;;;;;;22.60;15.00;;;;;;;9.01;100.00;98457.73;1592779;88;21537;-69
2021/10/13 01:31:05;;;;;;;20.77;14.95;;;;;;;9.00;100.00;98461.25;1594163;88;21455;-70
2021/10/13 01:33:43;;;;;;;23.47;15.43;;;;;;;8.98;100.00;98463.44;1575927;90;21977;-73
2021/10/13 01:36:12;;;;;;;21.97;15.35;;;;;;;8.95;100.00;98460.39;1585012;88;20937;-71
2021/10/13 01:38:45;;;;;;;20.00;15.75;;;;;;;8.94;100.00;98470.94;1591178;88;21448;-71
2021/10/13 01:41:13;;;;;;;22.75;15.05;;;;;;;8.94;100.00;98469.63;1594280;89;23803;-71
2021/10/13 01:43:43;;;;;;;26.30;16.48;;;;;;;8.95;100.00;98479.25;1594484;89;21455;-71
2021/10/13 01:46:11;;;;;;;21.68;15.88;;;;;;;8.94;100.00;98479.70;1594219;88;21130;-72
2021/10/13 01:48:40;;;;;;;27.95;16.20;;;;;;;8.93;100.00;98474.45;1594315;89;21435;-73
2021/10/13 01:51:08;;;;;;;22.75;15.80;;;;;;;8.91;100.00;98475.78;1594070;89;20981;-73
2021/10/13 01:53:37;;;;;;;24.67;15.15;;;;;;;8.88;100.00;98479.77;1594561;88;20997;-73
2021/10/13 01:56:06;;;;;;;22.13;15.30;;;;;;;8.86;100.00;98478.03;1554161;89;21046;-72
2021/10/13 01:58:35;;;;;;;21.35;15.75;;;;;;;8.90;100.00;98481.06;1595143;88;21078;-72
2021/10/13 02:01:04;;;;;;;20.35;15.48;;;;;;;8.92;100.00;98474.02;1593133;89;21471;-71
2021/10/13 02:03:33;;;;;;;24.18;16.40;;;;;;;8.92;100.00;98470.95;1594164;90;21527;-74
2021/10/13 02:06:02;;;;;;;24.98;16.27;;;;;;;8.93;100.00;98477.08;1595715;87;21068;-74
2021/10/13 02:08:33;;;;;;;23.07;15.93;;;;;;;8.95;100.00;98472.67;1594174;88;21475;-70
2021/10/13 02:11:03;;;;;;;21.85;15.78;;;;;;;8.94;100.00;98470.49;1574138;88;21491;-72
2021/10/13 02:13:35;;;;;;;24.80;16.05;;;;;;;8.96;100.00;98475.73;1592546;88;21519;-72
2021/10/13 02:16:04;;;;;;;25.77;16.57;;;;;;;8.94;100.00;98470.49;1594297;87;21035;-73
2021/10/13 02:18:32;;;;;;;20.82;15.60;;;;;;;8.95;100.00;98469.60;1595553;88;20901;-72
2021/10/13 02:21:02;;;;;;;23.42;16.42;;;;;;;8.95;100.00;98463.47;1596166;88;21559;-73
2021/10/13 02:23:35;;;;;;;21.73;16.10;;;;;;;8.94;100.00;98465.67;1594083;89;21908;-72
2021/10/13 02:26:13;;;;;;;23.47;16.27;;;;;;;8.94;100.00;98474.44;1594578;88;21476;-72
2021/10/13 02:28:45;;;;;;;23.05;15.65;;;;;;;8.93;100.00;98471.82;1592831;89;21527;-73
2021/10/13 02:31:13;;;;;;;23.30;16.12;;;;;;;8.92;100.00;98475.34;1595334;88;21054;-73
2021/10/13 02:33:46;;;;;;;23.05;15.93;;;;;;;8.95;100.00;98468.73;1596626;89;21518;-72
2021/10/13 02:36:14;;;;;;;21.70;16.05;;;;;;;8.97;100.00;98465.64;1598242;87;21529;-73
2021/10/13 02:38:43;;;;;;;24.55;16.48;;;;;;;8.97;100.00;98469.59;1596507;88;20970;-74
2021/10/13 02:41:12;;;;;;;23.07;16.30;;;;;;;8.96;100.00;98478.36;1593562;89;21560;-72
2021/10/13 02:43:41;;;;;;;21.87;16.65;;;;;;;8.95;100.00;98482.75;1594177;88;20988;-73
2021/10/13 02:46:35;;;;;;;22.15;16.25;;;;;;;8.94;100.00;98484.95;1594253;88;21029;-71
2021/10/13 02:49:27;;;;;;;20.37;16.07;;;;;;;8.94;100.00;98485.40;1591659;89;21135;-71
2021/10/13 02:52:03;;;;;;;24.07;15.53;;;;;;;8.93;100.00;98487.16;1594402;88;21507;-72
2021/10/13 02:54:56;;;;;;;20.12;15.50;;;;;;;8.93;100.00;98491.55;1591061;88;21139;-71
2021/10/13 02:57:51;;;;;;;23.32;16.12;;;;;;;8.92;100.00;98495.94;1594230;88;21458;-74
2021/10/13 03:00:22;;;;;;;22.22;15.18;;;;;;;8.90;100.00;98497.71;1594223;89;20981;-74
2021/10/13 03:03:01;;;;;;;21.97;15.90;;;;;;;8.89;100.00;98501.23;1594616;88;21479;-76
2021/10/13 03:05:30;;;;;;;29.30;17.27;;;;;;;8.90;100.00;98500.78;1594128;88;20909;-74
2021/10/13 03:08:02;;;;;;;25.90;17.40;;;;;;;8.88;100.00;98499.93;1594015;88;21508;-73
2021/10/13 03:10:33;;;;;;;24.85;17.05;;;;;;;8.87;100.00;98508.27;1594236;88;20912;-72
2021/10/13 03:13:02;;;;;;;26.70;17.52;;;;;;;8.86;100.00;98511.78;1594517;88;20980;-73
2021/10/13 03:15:32;;;;;;;24.50;17.12;;;;;;;8.84;100.00;98504.34;1594349;90;21108;-73
2021/10/13 03:18:00;;;;;;;26.52;17.23;;;;;;;8.81;100.00;98498.67;1575246;90;20866;-70
2021/10/13 03:20:31;;;;;;;25.50;17.55;;;;;;;8.80;100.00;98497.38;1575043;90;21493;-73
2021/10/13 03:23:06;;;;;;;26.35;17.73;;;;;;;8.79;100.00;98494.31;1594434;88;21015;-73
2021/10/13 03:25:34;;;;;;;23.18;16.90;;;;;;;8.76;100.00;98495.66;1594134;88;21000;-73
2021/10/13 03:28:04;;;;;;;27.77;17.30;;;;;;;8.73;100.00;98497.88;1594367;88;21118;-73
2021/10/13 03:30:32;;;;;;;27.22;16.85;;;;;;;8.73;100.00;98498.31;1594494;88;21448;-72
2021/10/13 03:33:01;;;;;;;24.60;17.77;;;;;;;8.72;100.00;98503.15;1598931;87;21479;-73
2021/10/13 03:35:31;;;;;;;23.30;16.62;;;;;;;8.70;100.00;98492.64;1592034;90;21452;-73
2021/10/13 03:38:06;;;;;;;24.57;16.55;;;;;;;8.68;100.00;98483.90;1594015;90;21032;-73
2021/10/13 03:40:39;;;;;;;25.85;16.45;;;;;;;8.66;100.00;98485.67;1595886;88;21583;-72
2021/10/13 03:43:10;;;;;;;24.45;16.67;;;;;;;8.64;100.00;98475.61;1596426;89;20977;-63
2021/10/13 03:45:39;;;;;;;28.55;16.93;;;;;;;8.62;100.00;98482.64;1601360;88;21586;-73
2021/10/13 03:48:08;;;;;;;23.20;17.57;;;;;;;8.60;100.00;98480.91;1601221;88;21051;-73
2021/10/13 03:50:38;;;;;;;21.82;16.52;;;;;;;8.57;100.00;98483.13;1601044;88;21043;-72
2021/10/13 03:53:06;;;;;;;28.98;16.48;;;;;;;8.54;100.00;98487.09;1601564;88;21972;-74
2021/10/13 03:55:34;;;;;;;21.17;15.72;;;;;;;8.56;100.00;98496.28;1600300;89;20928;-73
2021/10/13 03:58:02;;;;;;;22.67;16.07;;;;;;;8.54;100.00;98500.24;1600678;88;21470;-73
2021/10/13 04:00:31;;;;;;;21.85;16.55;;;;;;;8.55;100.00;98504.61;1600511;88;20950;-74
2021/10/13 04:03:00;;;;;;;21.95;16.52;;;;;;;8.54;100.00;98505.50;1599649;88;20908;-74
2021/10/13 04:05:30;;;;;;;23.52;17.60;;;;;;;8.51;100.00;98501.14;1600659;89;21975;-73
2021/10/13 04:07:59;;;;;;;27.62;17.02;;;;;;;8.50;100.00;98505.94;1601112;89;20972;-74
2021/10/13 04:10:28;;;;;;;26.37;17.48;;;;;;;8.49;100.00;98512.08;1600346;89;20988;-74
2021/10/13 04:12:55;;;;;;;22.77;17.32;;;;;;;8.50;100.00;98507.25;1591061;89;20984;-75
2021/10/13 04:15:24;;;;;;;23.85;16.87;;;;;;;8.49;100.00;98507.26;1602053;89;21499;-73
2021/10/13 04:17:51;;;;;;;24.95;16.35;;;;;;;8.46;100.00;98513.41;1602252;88;21158;-72
2021/10/13 04:20:20;;;;;;;22.62;17.15;;;;;;;8.45;100.00;98506.86;1601802;88;21450;-73
2021/10/13 04:22:48;;;;;;;24.15;18.15;;;;;;;8.42;100.00;98512.14;1602156;88;20923;-74
2021/10/13 04:25:16;;;;;;;27.32;18.45;;;;;;;8.39;100.00;98511.72;1601842;88;21469;-74
2021/10/13 04:27:44;;;;;;;25.25;17.92;;;;;;;8.38;100.00;98505.16;1602178;88;21038;-73
2021/10/13 04:30:14;;;;;;;24.92;18.50;;;;;;;8.37;100.00;98512.61;1601735;88;21984;-72
2021/10/13 04:32:42;;;;;;;26.40;18.85;;;;;;;8.36;100.00;98517.00;1601313;88;20947;-72
2021/10/13 04:35:11;;;;;;;31.80;19.62;;;;;;;8.35;100.00;98518.32;1582097;88;21581;-72
2021/10/13 04:37:39;;;;;;;26.68;18.98;;;;;;;8.33;100.00;98516.11;1602199;88;21027;-72
2021/10/13 04:40:08;;;;;;;26.45;18.25;;;;;;;8.31;100.00;98520.06;1601905;88;21477;-72
2021/10/13 04:42:36;;;;;;;24.87;17.95;;;;;;;8.30;100.00;98519.64;1601547;88;21951;-72
2021/10/13 04:45:07;;;;;;;27.55;17.95;;;;;;;8.31;100.00;98527.08;1589841;88;21507;-72
2021/10/13 04:47:39;;;;;;;23.73;17.67;;;;;;;8.31;100.00;98529.70;1588250;89;21449;-73
2021/10/13 04:50:06;;;;;;;25.52;17.20;;;;;;;8.31;100.00;98527.08;1588169;87;20905;-72
2021/10/13 04:52:34;;;;;;;25.85;18.65;;;;;;;8.34;100.00;98527.09;1598294;88;20947;-72
2021/10/13 04:55:06;;;;;;;25.30;18.98;;;;;;;8.36;100.00;98527.95;1594424;89;21384;-72
2021/10/13 04:57:34;;;;;;;30.77;19.77;;;;;;;8.35;100.00;98532.34;1596582;89;20969;-72
2021/10/13 05:00:06;;;;;;;25.55;19.17;;;;;;;8.37;100.00;98540.20;1598811;88;20897;-73
2021/10/13 05:02:34;;;;;;;28.50;18.95;;;;;;;8.41;100.00;98539.30;1599330;88;20920;-72
2021/10/13 05:05:02;;;;;;;28.95;18.98;;;;;;;8.42;100.00;98534.48;1599026;88;20940;-72
2021/10/13 05:07:29;;;;;;;27.90;18.02;;;;;;;8.41;100.00;98537.55;1591869;88;21109;-73
2021/10/13 05:09:57;;;;;;;24.35;17.42;;;;;;;8.41;100.00;98541.93;1586912;88;20941;-71
2021/10/13 05:12:24;;;;;;;28.47;18.10;;;;;;;8.44;100.00;98540.59;1582053;89;21031;-73
2021/10/13 05:14:53;;;;;;;25.52;18.30;;;;;;;8.45;100.00;98537.95;1594812;89;21480;-72
2021/10/13 05:17:22;;;;;;;27.85;19.70;;;;;;;8.44;100.00;98540.59;1596513;89;20882;-72
2021/10/13 05:19:51;;;;;;;25.90;19.45;;;;;;;8.44;100.00;98551.11;1596321;89;21741;-72
2021/10/13 05:22:19;;;;;;;27.77;19.65;;;;;;;8.42;100.00;98545.86;1596180;89;20965;-72
2021/10/13 05:24:50;;;;;;;31.50;19.80;;;;;;;8.44;100.00;98554.61;1598391;88;20960;-71
2021/10/13 05:27:19;;;;;;;32.70;20.32;;;;;;;8.47;100.00;98551.95;1599922;88;20973;-71
2021/10/13 05:29:47;;;;;;;32.30;19.82;;;;;;;8.46;100.00;98547.58;1599342;87;20976;-71
2021/10/13 05:32:14;;;;;;;28.70;19.77;;;;;;;8.48;100.00;98551.52;1588340;88;22007;-70
2021/10/13 05:34:42;;;;;;;26.10;18.20;;;;;;;8.50;100.00;98553.69;1590454;88;20948;-73
2021/10/13 05:37:10;;;;;;;31.77;18.35;;;;;;;8.53;100.00;98559.39;1592664;88;21046;-72
2021/10/13 05:39:38;;;;;;;24.15;18.12;;;;;;;8.57;100.00;98562.44;1595023;88;21499;-72
2021/10/13 05:42:06;;;;;;;26.52;19.30;;;;;;;8.61;100.00;98567.66;1596595;88;20980;-72
2021/10/13 05:44:34;;;;;;;25.70;19.35;;;;;;;8.63;100.00;98565.89;1574744;89;22000;-72
2021/10/13 05:47:01;;;;;;;26.48;18.30;;;;;;;8.65;100.00;98560.17;1598891;89;20892;-72
2021/10/13 05:49:29;;;;;;;24.70;18.87;;;;;;;8.67;100.00;98568.05;1597699;89;21475;-71
2021/10/13 05:51:56;;;;;;;27.32;19.10;;;;;;;8.69;100.00;98563.65;1601085;89;20980;-72
2021/10/13 05:54:24;;;;;;;24.63;18.02;;;;;;;8.67;100.00;98562.34;1597968;88;20968;-72
2021/10/13 05:56:51;;;;;;;33.08;19.85;;;;;;;8.66;100.00;98564.55;1595313;88;21802;-71
2021/10/13 05:59:20;;;;;;;45.85;26.25;;;;;;;8.65;100.00;98560.62;1594450;89;20968;-72
2021/10/13 06:01:47;;;;;;;54.65;30.72;;;;;;;8.64;100.00;98559.74;1595010;89;20975;-72
2021/10/13 06:04:15;;;;;;;42.10;25.50;;;;;;;8.65;100.00;98572.01;1594962;88;20972;-72
2021/10/13 06:06:42;;;;;;;41.88;23.35;;;;;;;8.66;100.00;98571.13;1594818;88;20940;-71
2021/10/13 06:09:11;;;;;;;29.72;18.85;;;;;;;8.69;100.00;98578.98;1595121;88;21447;-73
2021/10/13 06:11:39;;;;;;;24.52;16.15;;;;;;;8.71;100.00;98574.59;1594934;88;21505;-71
2021/10/13 06:14:07;;;;;;;21.70;15.83;;;;;;;8.74;100.00;98574.56;1594758;89;20952;-70
2021/10/13 06:16:36;;;;;;;22.35;15.55;;;;;;;8.77;100.00;98579.80;1594933;88;20940;-72
2021/10/13 06:19:03;;;;;;;22.55;15.48;;;;;;;8.82;100.00;98590.28;1594809;88;20909;-73
2021/10/13 06:21:35;;;;;;;19.37;14.73;;;;;;;8.85;100.00;98590.25;1594923;88;21101;-72
2021/10/13 06:24:03;;;;;;;19.90;14.53;;;;;;;8.87;100.00;98590.23;1595081;88;20932;-74
2021/10/13 06:26:31;;;;;;;21.97;15.10;;;;;;;8.90;100.00;98587.14;1600239;88;20998;-72
2021/10/13 06:28:59;;;;;;;23.47;15.43;;;;;;;8.92;100.00;98588.44;1586468;89;20917;-73
2021/10/13 06:31:26;;;;;;;22.30;15.10;;;;;;;8.92;100.00;98589.75;1597246;90;20901;-72
2021/10/13 06:33:54;;;;;;;22.35;15.23;;;;;;;8.93;100.00;98593.69;1596005;88;21146;-72
2021/10/13 06:36:22;;;;;;;18.70;13.95;;;;;;;8.94;100.00;98595.88;1584962;89;21575;-73
2021/10/13 06:38:49;;;;;;;21.62;13.88;;;;;;;8.96;100.00;98598.05;1598180;89;21016;-73
2021/10/13 06:41:17;;;;;;;19.92;13.60;;;;;;;8.98;100.00;98602.41;1607560;88;20929;-72
2021/10/13 06:43:44;;;;;;;74.67;33.60;;;;;;;9.01;100.00;98605.49;1621442;88;20973;-74
2021/10/13 06:46:12;;;;;;;59.85;27.15;;;;;;;9.03;100.00;98601.96;1606066;88;21709;-72
2021/10/13 06:48:39;;;;;;;50.17;27.65;;;;;;;9.05;100.00;98608.52;1591382;89;20928;-74
2021/10/13 06:51:07;;;;;;;34.23;20.92;;;;;;;9.10;100.00;98608.05;1569102;90;20984;-73
2021/10/13 06:53:35;;;;;;;41.68;21.68;;;;;;;9.15;100.00;98611.06;1596321;90;21481;-74
2021/10/13 06:56:04;;;;;;;32.65;19.23;;;;;;;9.19;100.00;98607.09;1596653;88;21505;-74
2021/10/13 06:58:32;;;;;;;44.23;22.13;;;;;;;9.20;100.00;98609.70;1595791;90;22000;-72
2021/10/13 07:01:00;;;;;;;41.33;24.43;;;;;;;9.23;100.00;98608.36;1596091;88;20981;-72
2021/10/13 07:03:28;;;;;;;25.30;17.50;;;;;;;9.25;100.00;98602.64;1596532;90;21492;-73
2021/10/13 07:05:56;;;;;;;24.63;15.28;;;;;;;9.28;100.00;98600.42;1596741;90;20953;-73
2021/10/13 07:08:23;;;;;;;20.37;14.83;;;;;;;9.31;100.00;98610.91;1596404;88;21584;-73
2021/10/13 07:10:50;;;;;;;19.35;14.38;;;;;;;9.33;100.00;98603.43;1596686;90;21579;-74
2021/10/13 07:13:18;;;;;;;21.73;14.73;;;;;;;9.34;100.00;98613.08;1596894;90;20981;-73
2021/10/13 07:15:45;;;;;;;22.75;16.60;;;;;;;9.35;100.00;98608.23;1577316;89;20987;-78
2021/10/13 07:18:14;;;;;;;21.82;15.60;;;;;;;9.36;100.00;98608.66;1597251;88;20952;-74
2021/10/13 07:20:41;;;;;;;22.98;15.85;;;;;;;9.38;100.00;98605.58;1596424;90;20953;-73
2021/10/13 07:23:09;;;;;;;18.92;14.70;;;;;;;9.42;100.00;98612.99;1596561;88;21141;-73
2021/10/13 07:25:38;;;;;;;22.52;15.78;;;;;;;9.45;100.00;98602.44;1596401;88;20949;-72
2021/10/13 07:28:05;;;;;;;24.47;15.08;;;;;;;9.46;100.00;98602.45;1601310;88;20920;-73
2021/10/13 07:30:34;;;;;;;25.17;14.43;;;;;;;9.48;100.00;98600.25;1559826;89;21486;-73
2021/10/13 07:33:05;;;;;;;20.77;14.65;;;;;;;9.50;100.00;98601.97;1601356;88;21454;-73
2021/10/13 07:35:34;;;;;;;22.90;14.65;;;;;;;9.52;100.00;98598.01;1598956;88;21515;-73
2021/10/13 07:38:11;;;;;;;18.93;15.00;;;;;;;9.54;100.00;98596.23;1582148;89;20967;-73
2021/10/13 07:40:39;;;;;;;22.20;15.78;;;;;;;9.49;100.00;98592.33;1599094;88;21592;-73
2021/10/13 07:43:12;;;;;;;22.52;15.72;;;;;;;9.51;100.00;98602.84;1600737;88;21500;-73
2021/10/13 07:45:43;;;;;;;21.48;15.80;;;;;;;9.50;100.00;98601.09;1591904;88;21021;-73
2021/10/13 07:48:11;;;;;;;23.35;15.53;;;;;;;9.52;100.00;98605.46;1613279;88;21130;-74
2021/10/13 07:50:41;;;;;;;21.87;16.05;;;;;;;9.54;100.00;98610.71;1609167;88;21427;-73
2021/10/13 07:53:10;;;;;;;22.25;15.28;;;;;;;9.54;100.00;98608.08;1601443;88;21498;-73
2021/10/13 07:55:38;;;;;;;24.67;16.00;;;;;;;9.55;100.00;98605.87;1601893;88;20983;-73
2021/10/13 07:58:06;;;;;;;25.55;16.40;;;;;;;9.56;100.00;98609.80;1601984;88;20996;-73
2021/10/13 08:00:34;;;;;;;26.07;16.62;;;;;;;9.60;100.00;98608.01;1599851;88;21113;-73
2021/10/13 08:03:01;;;;;;;29.12;16.55;;;;;;;9.62;100.00;98602.28;1605394;88;21489;-73
2021/10/13 08:05:29;;;;;;;28.42;16.75;;;;;;;9.64;100.00;98600.50;1611883;88;21503;-73
2021/10/13 08:07:57;;;;;;;22.35;16.57;;;;;;;9.69;100.00;98602.64;1610509;87;21503;-72
2021/10/13 08:10:25;;;;;;;29.30;16.75;;;;;;;9.71;100.00;98605.69;1596907;90;20976;-73
2021/10/13 08:12:53;;;;;;;21.20;16.23;;;;;;;9.73;100.00;98608.30;1595995;90;21177;-73
2021/10/13 08:15:20;;;;;;;25.90;16.62;;;;;;;9.77;100.00;98610.88;1596659;89;20968;-73
2021/10/13 08:17:50;;;;;;;22.70;15.98;;;;;;;9.84;100.00;98612.13;1597007;89;21433;-73
2021/10/13 08:20:18;;;;;;;21.42;16.25;;;;;;;9.89;100.00;98609.86;1599874;88;20889;-73
2021/10/13 08:22:48;;;;;;;21.77;16.35;;;;;;;9.94;100.00;98604.57;1616591;88;20944;-73
2021/10/13 08:25:16;;;;;;;27.42;16.35;;;;;;;10.00;100.00;98607.13;1621990;88;21163;-74
2021/10/13 08:27:44;;;;;;;22.62;16.42;;;;;;;10.06;100.00;98606.60;1621686;88;20924;-73
2021/10/13 08:30:11;;;;;;;19.55;15.63;;;;;;;10.07;100.00;98608.34;1621990;88;20880;-73
2021/10/13 08:32:38;;;;;;;23.25;16.60;;;;;;;10.12;100.00;98614.00;1621746;88;21474;-74
2021/10/13 08:35:07;;;;;;;26.55;16.55;;;;;;;10.16;100.00;98609.12;1622054;88;20965;-73
2021/10/13 08:37:35;;;;;;;25.80;17.02;;;;;;;10.20;100.00;98602.91;1621757;88;21112;-73
2021/10/13 08:40:03;;;;;;;25.35;15.98;;;;;;;10.24;100.00;98608.60;1621649;88;20945;-73
2021/10/13 08:42:31;;;;;;;26.00;16.57;;;;;;;10.27;100.00;98615.15;1603723;88;21575;-73
2021/10/13 08:44:59;;;;;;;22.65;16.90;;;;;;;10.31;100.00;98607.63;1620529;87;21547;-73
2021/10/13 08:47:27;;;;;;;25.50;17.98;;;;;;;10.35;100.00;98611.96;1621062;88;20929;-72
2021/10/13 08:49:56;;;;;;;22.67;16.87;;;;;;;10.37;100.00;98612.81;1619301;88;21126;-72
2021/10/13 08:52:23;;;;;;;22.27;17.60;;;;;;;10.38;100.00;98608.84;1594729;88;20928;-73
2021/10/13 08:54:55;;;;;;;28.42;17.62;;;;;;;10.41;100.00;98613.23;1595160;89;20885;-73
2021/10/13 08:57:22;;;;;;;23.25;16.42;;;;;;;10.43;100.00;98607.48;1602055;88;20928;-73
2021/10/13 08:59:51;;;;;;;22.98;17.05;;;;;;;10.45;100.00;98612.29;1622008;88;20908;-73
2021/10/13 09:02:42;;;;;;;23.92;16.85;;;;;;;10.50;100.00;98613.55;1621744;88;21999;-72
2021/10/13 09:05:15;;;;;;;21.85;16.95;;;;;;;10.55;100.00;98607.75;1621733;88;20912;-73
2021/10/13 09:07:53;;;;;;;22.77;17.95;;;;;;;10.57;100.00;98611.23;1621865;88;20928;-73
2021/10/13 09:10:36;;;;;;;24.40;16.75;;;;;;;10.59;100.00;98607.69;1621768;88;21408;-72
2021/10/13 09:13:08;;;;;;;24.47;16.60;;;;;;;10.61;100.00;98611.17;1621015;88;21514;-72
2021/10/13 09:15:36;;;;;;;23.15;16.73;;;;;;;10.66;100.00;98609.78;1610913;88;21808;-72
2021/10/13 09:18:06;;;;;;;25.88;17.70;;;;;;;10.70;100.00;98610.16;1621851;88;20988;-73
2021/10/13 09:20:38;;;;;;;28.57;17.87;;;;;;;10.76;100.00;98611.38;1621707;88;21435;-72
2021/10/13 09:23:18;;;;;;;24.50;16.42;;;;;;;10.81;100.00;98609.99;1621945;88;21467;-72
2021/10/13 09:26:10;;;;;;;26.40;17.77;;;;;;;10.84;100.00;98608.17;1609306;88;21547;-74
2021/10/13 09:28:38;;;;;;;26.37;17.50;;;;;;;10.85;100.00;98611.23;1603164;88;21141;-74
2021/10/13 09:31:18;;;;;;;28.47;18.52;;;;;;;10.87;100.00;98605.94;1609619;87;20944;-74
2021/10/13 09:34:03;;;;;;;29.40;18.27;;;;;;;10.88;100.00;98604.63;1592516;89;21372;-74
2021/10/13 09:36:43;;;;;;;24.70;17.20;;;;;;;10.91;100.00;98598.42;1594885;90;21484;-73
2021/10/13 09:39:14;;;;;;;34.08;19.05;;;;;;;10.93;100.00;98604.55;1594942;89;21009;-74
2021/10/13 09:42:09;;;;;;;23.22;17.62;;;;;;;10.97;100.00;98602.28;1594736;88;21448;-74
2021/10/13 09:44:40;;;;;;;24.90;17.20;;;;;;;11.01;100.00;98601.34;1589807;88;21443;-75
2021/10/13 09:47:10;;;;;;;22.27;16.30;;;;;;;11.06;100.00;98604.77;1603192;88;20976;-74
2021/10/13 09:49:41;;;;;;;26.20;17.62;;;;;;;11.10;100.00;98601.18;1594006;89;20937;-74
2021/10/13 09:52:15;;;;;;;49.23;31.07;;;;;;;11.13;100.00;98603.77;1577802;90;20942;-74
2021/10/13 09:54:46;;;;;;;37.63;23.60;;;;;;;11.16;100.00;98598.88;1586961;90;21112;-74
2021/10/13 09:57:20;;;;;;;28.02;19.40;;;;;;;11.17;100.00;98598.86;1594694;90;20981;-74
2021/10/13 10:00:13;;;;;;;29.77;19.07;;;;;;;11.19;100.00;98602.79;1595051;90;20891;-74
2021/10/13 10:02:54;;;;;;;28.20;17.95;;;;;;;11.17;100.00;98598.86;1601348;88;20985;-73
2021/10/13 10:05:34;;;;;;;27.15;17.70;;;;;;;11.17;100.00;98599.30;1618076;88;20932;-73
2021/10/13 10:08:08;;;;;;;22.98;17.73;;;;;;;11.18;100.00;98599.28;1617906;88;21125;-73
2021/10/13 10:10:37;;;;;;;22.35;16.93;;;;;;;11.19;100.00;98598.38;1614590;88;21554;-72
2021/10/13 10:13:07;;;;;;;25.80;17.17;;;;;;;11.21;100.00;98591.30;1595883;88;20972;-73
2021/10/13 10:15:49;;;;;;;23.73;17.73;;;;;;;11.25;100.00;98598.27;1598516;88;21579;-73
2021/10/13 10:18:36;;;;;;;27.30;18.30;;;;;;;11.26;100.00;98587.27;1598107;89;20925;-72
2021/10/13 10:21:24;;;;;;;22.25;16.65;;;;;;;11.28;100.00;98585.47;1605897;88;21108;-72
2021/10/13 10:23:56;;;;;;;30.45;18.07;;;;;;;11.31;100.00;98582.77;1579504;89;20974;-73
2021/10/13 10:26:29;;;;;;;;;;;;;;;11.34;100.00;98584.91;1606035;89;21459;-73
2021/10/13 10:29:01;;;;;;;;;;;;;;;11.38;100.00;98580.92;1610767;88;20093;-74
2021/10/13 10:31:32;;;;;;;23.63;17.20;;;;;;;11.41;100.00;98583.05;1610820;88;20109;-73
2021/10/13 10:34:11;;;;;;;21.48;16.05;;;;;;;11.44;100.00;98582.13;1569050;90;21119;-73
2021/10/13 10:36:48;;;;;;;24.07;15.50;;;;;;;11.43;100.00;98576.42;1569425;90;20928;-74
2021/10/13 10:39:18;;;;;;;24.60;15.63;;;;;;;11.42;100.00;98568.08;1568588;91;20940;-74
2021/10/13 10:41:52;;;;;;;23.22;15.83;;;;;;;11.40;100.00;98564.15;1569252;89;20945;-74
2021/10/13 10:44:43;;;;;;;25.55;17.85;;;;;;;11.41;100.00;98578.22;1569998;89;20948;-73
2021/10/13 10:47:14;;;;;;;42.25;24.90;;;;;;;11.40;100.00;98569.43;1576653;89;21120;-73
2021/10/13 10:49:50;;;;;;;31.35;20.45;;;;;;;11.40;100.00;98569.43;1586625;90;20972;-73
2021/10/13 10:52:26;;;;;;;25.35;17.05;;;;;;;11.40;100.00;98568.56;1597170;90;21468;-73
2021/10/13 10:55:06;;;;;;;26.85;16.50;;;;;;;11.40;100.00;98575.16;1597047;89;21493;-73
2021/10/13 10:57:41;;;;;;;38.53;22.95;;;;;;;11.35;100.00;98568.20;1597229;89;21459;-73
2021/10/13 11:00:11;;;;;;;60.65;30.85;;;;;;;11.34;100.00;98574.34;1597115;89;21139;-73
2021/10/13 11:02:40;;;;;;;42.50;25.82;;;;;;;11.36;100.00;98569.06;1597259;89;21000;-73
2021/10/13 11:05:10;;;;;;;32.80;20.25;;;;;;;11.39;100.00;98572.10;1597206;90;21507;-74
2021/10/13 11:07:42;;;;;;;22.93;16.45;;;;;;;11.40;100.00;98573.39;1597117;89;20980;-73
2021/10/13 11:10:11;;;;;;;25.52;16.95;;;;;;;11.44;100.00;98572.44;1597234;90;20996;-73
2021/10/13 11:12:57;;;;;;;21.17;16.85;;;;;;;11.45;100.00;98569.34;1597024;89;21122;-73
2021/10/13 11:15:27;;;;;;;26.15;16.85;;;;;;;11.44;100.00;98561.88;1594468;88;20990;-71
2021/10/13 11:18:00;;;;;;;21.48;16.23;;;;;;;11.44;100.00;98559.68;1588055;90;20937;-72
2021/10/13 11:20:28;;;;;;;23.60;15.98;;;;;;;11.45;100.00;98557.45;1566801;90;20983;-73
2021/10/13 11:22:59;;;;;;;25.37;17.15;;;;;;;11.45;100.00;98569.34;1553532;91;20942;-73
2021/10/13 11:25:29;;;;;;;23.73;16.73;;;;;;;11.43;100.00;98557.48;1553852;91;21780;-73
2021/10/13 11:28:02;;;;;;;24.27;16.70;;;;;;;11.43;100.00;98552.66;1533383;92;21064;-72
2021/10/13 11:30:39;;;;;;;28.73;17.05;;;;;;;11.41;100.00;98555.78;1553887;91;21005;-72
2021/10/13 11:33:08;;;;;;;24.80;16.48;;;;;;;11.34;100.00;98563.78;1553511;90;21002;-72
2021/10/13 11:35:36;;;;;;;21.77;15.48;;;;;;;11.30;100.00;98559.91;1596545;90;20905;-73